Time,TemperatureF,DewpointF,PressureIn,WindDirection,WindDirectionDegrees,WindSpeedMPH,WindSpeedGustMPH,Humidity,HourlyPrecipIn,Conditions,Clouds,dailyrainin,SoftwareType,DateUTC
2013-10-09 00:14:00,74.5,72.0,29.91,WNW,288,0.0,2.0,90,0.00,,,0.00,weatherlink.com 1.10,2013-10-09 04:14:00,
2013-10-09 00:29:00,74.4,71.0,29.91,WNW,288,0.0,1.0,90,0.00,,,0.00,weatherlink.com 1.10,2013-10-09 04:29:00,
2013-10-09 00:44:00,74.2,71.0,29.91,WNW,288,0.0,2.0,90,0.00,,,0.00,weatherlink.com 1.10,2013-10-09 04:44:00,
2013-10-09 00:59:00,74.1,71.0,29.91,WNW,288,0.0,3.0,91,0.00,,,0.00,weatherlink.com 1.10,2013-10-09 04:59:00,
2013-10-09 01:14:00,73.9,71.0,29.90,WNW,288,0.0,0.0,91,0.00,,,0.00,weatherlink.com 1.10,2013-10-09 05:14:00,
2013-10-09 01:29:00,73.9,71.0,29.91,WNW,288,0.0,3.0,91,0.00,,,0.00,weatherlink.com 1.10,2013-10-09 05:29:00,
2013-10-09 01:44:00,73.8,71.0,29.90,WNW,288,0.0,5.0,91,0.00,,,0.00,weatherlink.com 1.10,2013-10-09 05:44:00,
2013-10-09 01:59:00,73.6,71.0,29.91,WNW,289,0.0,7.0,92,0.00,,,0.00,weatherlink.com 1.10,2013-10-09 05:59:00,
2013-10-09 02:14:00,73.6,71.0,29.90,WNW,289,0.0,5.0,92,0.00,,,0.00,weatherlink.com 1.10,2013-10-09 06:14:00,
2013-10-09 02:29:00,73.6,71.0,29.89,WNW,291,0.0,7.0,92,0.00,,,0.00,weatherlink.com 1.10,2013-10-09 06:29:00,
2013-10-09 02:45:00,73.8,71.0,29.89,WNW,294,5.0,7.0,92,0.00,,,0.00,weatherlink.com 1.10,2013-10-09 06:45:00,
2013-10-09 03:00:00,74.1,72.0,29.89,WNW,295,0.0,1.0,92,0.00,,,0.00,weatherlink.com 1.10,2013-10-09 07:00:00,
2013-10-09 03:15:00,74.4,72.0,29.89,WNW,295,0.0,4.0,93,0.00,,,0.00,weatherlink.com 1.10,2013-10-09 07:15:00,
2013-10-09 03:30:00,74.6,73.0,29.89,WNW,293,0.0,5.0,93,0.00,,,0.00,weatherlink.com 1.10,2013-10-09 07:30:00,
2013-10-09 03:45:00,74.7,73.0,29.88,WNW,291,3.0,5.0,93,0.00,,,0.00,weatherlink.com 1.10,2013-10-09 07:45:00,
2013-10-09 04:00:00,74.8,73.0,29.88,WNW,292,0.0,5.0,93,0.00,,,0.00,weatherlink.com 1.10,2013-10-09 08:00:00,
2013-10-09 04:15:00,74.9,73.0,29.88,WNW,293,4.0,7.0,93,0.01,,,0.01,weatherlink.com 1.10,2013-10-09 08:15:00,
2013-10-09 04:30:00,74.8,73.0,29.89,WNW,298,1.0,5.0,94,0.03,,,0.03,weatherlink.com 1.10,2013-10-09 08:30:00,
2013-10-09 04:45:00,74.8,73.0,29.89,NW,310,0.0,4.0,94,0.10,,,0.10,weatherlink.com 1.10,2013-10-09 08:45:00,
2013-10-09 05:00:00,74.8,73.0,29.89,NW,312,3.0,5.0,94,0.10,,,0.10,weatherlink.com 1.10,2013-10-09 09:00:00,
2013-10-09 05:15:00,75.2,73.0,29.90,North,5,8.0,13.0,94,0.09,,,0.10,weatherlink.com 1.10,2013-10-09 09:15:00,
2013-10-09 05:30:00,75.2,73.0,29.90,North,5,2.0,10.0,94,0.07,,,0.10,weatherlink.com 1.10,2013-10-09 09:30:00,
2013-10-09 05:45:00,75.6,74.0,29.90,North,355,0.0,10.0,94,0.01,,,0.11,weatherlink.com 1.10,2013-10-09 09:45:00,
2013-10-09 06:00:00,74.7,73.0,29.90,WNW,293,0.0,9.0,94,0.04,,,0.14,weatherlink.com 1.10,2013-10-09 10:00:00,
2013-10-09 06:15:00,74.4,73.0,29.90,WNW,292,0.0,5.0,94,0.06,,,0.16,weatherlink.com 1.10,2013-10-09 10:15:00,
2013-10-09 06:30:00,74.2,72.0,29.91,WNW,298,0.0,9.0,94,0.07,,,0.17,weatherlink.com 1.10,2013-10-09 10:30:00,
2013-10-09 06:45:00,74.1,72.0,29.91,WNW,298,0.0,9.0,94,0.07,,,0.18,weatherlink.com 1.10,2013-10-09 10:45:00,
2013-10-09 07:00:00,74.0,72.0,29.91,WNW,294,8.0,10.0,94,0.04,,,0.18,weatherlink.com 1.10,2013-10-09 11:00:00,
2013-10-09 07:15:00,73.8,72.0,29.91,WNW,302,0.0,7.0,94,0.02,,,0.18,weatherlink.com 1.10,2013-10-09 11:15:00,
2013-10-09 07:30:00,73.6,72.0,29.92,WNW,290,0.0,10.0,94,0.01,,,0.18,weatherlink.com 1.10,2013-10-09 11:30:00,
2013-10-09 07:45:00,73.5,72.0,29.93,WNW,283,0.0,7.0,94,0.00,,,0.18,weatherlink.com 1.10,2013-10-09 11:45:00,
2013-10-09 08:00:00,73.5,72.0,29.93,NW,310,0.0,7.0,94,0.00,,,0.18,weatherlink.com 1.10,2013-10-09 12:00:00,
2013-10-09 08:15:00,73.5,72.0,29.93,WNW,288,0.0,9.0,94,0.00,,,0.18,weatherlink.com 1.10,2013-10-09 12:15:00,
2013-10-09 08:30:00,73.7,72.0,29.95,WNW,302,0.0,6.0,94,0.00,,,0.18,weatherlink.com 1.10,2013-10-09 12:30:00,
2013-10-09 08:45:00,74.0,72.0,29.95,NW,313,0.0,6.0,94,0.00,,,0.18,weatherlink.com 1.10,2013-10-09 12:45:00,
2013-10-09 09:00:00,74.4,73.0,29.95,NNW,336,0.0,5.0,94,0.00,,,0.18,weatherlink.com 1.10,2013-10-09 13:00:00,
2013-10-09 09:15:00,74.9,73.0,29.95,NNW,332,2.0,9.0,94,0.00,,,0.18,weatherlink.com 1.10,2013-10-09 13:15:00,
2013-10-09 09:30:00,75.3,74.0,29.95,North,360,0.0,10.0,94,0.00,,,0.18,weatherlink.com 1.10,2013-10-09 13:30:00,
2013-10-09 09:45:00,75.9,74.0,29.96,North,355,5.0,19.0,94,0.00,,,0.18,weatherlink.com 1.10,2013-10-09 13:45:00,
2013-10-09 10:00:00,76.8,75.0,29.97,NNW,346,11.0,16.0,93,0.00,,,0.18,weatherlink.com 1.10,2013-10-09 14:00:00,
2013-10-09 10:15:00,78.6,76.0,29.98,North,360,5.0,17.0,90,0.00,,,0.18,weatherlink.com 1.10,2013-10-09 14:15:00,
2013-10-09 10:30:00,81.1,76.0,29.98,North,5,5.0,20.0,83,0.00,,,0.18,weatherlink.com 1.10,2013-10-09 14:30:00,
2013-10-09 10:45:00,83.2,76.0,29.98,NNW,340,2.0,13.0,78,0.00,,,0.18,weatherlink.com 1.10,2013-10-09 14:45:00,
2013-10-09 11:00:00,83.3,75.0,29.98,NNE,25,5.0,16.0,75,0.00,,,0.18,weatherlink.com 1.10,2013-10-09 15:00:00,
2013-10-09 11:16:00,82.4,75.0,29.99,North,5,1.0,16.0,77,0.00,,,0.18,weatherlink.com 1.10,2013-10-09 15:16:00,
2013-10-09 11:31:00,82.0,74.0,29.99,North,5,5.0,13.0,77,0.00,,,0.18,weatherlink.com 1.10,2013-10-09 15:31:00,
2013-10-09 11:46:00,81.9,74.0,29.99,NNE,30,3.0,17.0,77,0.00,,,0.18,weatherlink.com 1.10,2013-10-09 15:46:00,
2013-10-09 12:01:00,82.1,75.0,29.99,North,360,3.0,18.0,78,0.00,,,0.18,weatherlink.com 1.10,2013-10-09 16:01:00,
2013-10-09 12:16:00,83.9,76.0,29.98,North,5,13.0,14.0,76,0.00,,,0.18,weatherlink.com 1.10,2013-10-09 16:16:00,
2013-10-09 12:31:00,83.4,75.0,29.98,North,5,2.0,16.0,75,0.00,,,0.18,weatherlink.com 1.10,2013-10-09 16:31:00,
2013-10-09 12:46:00,83.8,75.0,29.97,NNE,29,6.0,14.0,75,0.00,,,0.18,weatherlink.com 1.10,2013-10-09 16:46:00,
2013-10-09 13:02:00,83.8,74.0,29.97,North,5,8.0,18.0,73,0.00,,,0.18,weatherlink.com 1.10,2013-10-09 17:02:00,
2013-10-09 13:16:00,81.4,75.0,29.97,North,9,10.0,19.0,82,0.00,,,0.18,weatherlink.com 1.10,2013-10-09 17:16:00,
2013-10-09 13:31:00,81.6,75.0,29.97,North,5,1.0,17.0,79,0.00,,,0.18,weatherlink.com 1.10,2013-10-09 17:31:00,
2013-10-09 13:46:00,82.5,75.0,29.96,NNW,331,0.0,19.0,77,0.00,,,0.18,weatherlink.com 1.10,2013-10-09 17:46:00,
2013-10-09 14:01:00,82.5,75.0,29.96,NNE,24,6.0,17.0,77,0.00,,,0.18,weatherlink.com 1.10,2013-10-09 18:01:00,
2013-10-09 14:16:00,83.5,75.0,29.95,NE,43,11.0,17.0,76,0.00,,,0.18,weatherlink.com 1.10,2013-10-09 18:16:00,
2013-10-09 14:31:00,84.0,75.0,29.95,North,5,1.0,16.0,73,0.00,,,0.18,weatherlink.com 1.10,2013-10-09 18:31:00,
2013-10-09 14:46:00,84.3,74.0,29.95,NE,36,13.0,15.0,72,0.00,,,0.18,weatherlink.com 1.10,2013-10-09 18:46:00,
2013-10-09 15:01:00,84.3,75.0,29.95,North,360,10.0,14.0,73,0.00,,,0.18,weatherlink.com 1.10,2013-10-09 19:01:00,
2013-10-09 15:16:00,84.0,75.0,29.95,NNE,16,12.0,15.0,73,0.00,,,0.18,weatherlink.com 1.10,2013-10-09 19:16:00,
2013-10-09 15:31:00,83.8,74.0,29.95,ENE,61,5.0,16.0,73,0.00,,,0.18,weatherlink.com 1.10,2013-10-09 19:31:00,
2013-10-09 15:46:00,83.7,74.0,29.95,NE,41,0.0,13.0,73,0.00,,,0.18,weatherlink.com 1.10,2013-10-09 19:46:00,
2013-10-09 16:01:00,83.8,74.0,29.95,NE,37,3.0,16.0,73,0.00,,,0.18,weatherlink.com 1.10,2013-10-09 20:01:00,
2013-10-09 16:16:00,83.5,74.0,29.94,NE,40,0.0,14.0,72,0.00,,,0.18,weatherlink.com 1.10,2013-10-09 20:16:00,
2013-10-09 16:31:00,83.2,73.0,29.95,NNE,27,11.0,15.0,72,0.00,,,0.18,weatherlink.com 1.10,2013-10-09 20:31:00,
2013-10-09 16:46:00,83.2,73.0,29.95,North,355,0.0,15.0,72,0.00,,,0.18,weatherlink.com 1.10,2013-10-09 20:46:00,
2013-10-09 17:01:00,82.6,72.0,29.95,North,11,7.0,18.0,71,0.00,,,0.18,weatherlink.com 1.10,2013-10-09 21:01:00,
2013-10-09 17:16:00,81.9,72.0,29.95,NNE,24,3.0,15.0,73,0.00,,,0.18,weatherlink.com 1.10,2013-10-09 21:16:00,
2013-10-09 17:31:00,81.1,73.0,29.95,North,360,0.0,18.0,75,0.00,,,0.18,weatherlink.com 1.10,2013-10-09 21:31:00,
2013-10-09 17:46:00,80.2,72.0,29.95,North,5,9.0,14.0,75,0.00,,,0.18,weatherlink.com 1.10,2013-10-09 21:46:00,
2013-10-09 18:01:00,78.9,72.0,29.96,NNE,26,5.0,19.0,78,0.00,,,0.18,weatherlink.com 1.10,2013-10-09 22:01:00,
2013-10-09 18:17:00,78.3,72.0,29.95,NNE,28,0.0,18.0,80,0.00,,,0.18,weatherlink.com 1.10,2013-10-09 22:17:00,
2013-10-09 18:31:00,77.8,72.0,29.96,North,355,6.0,16.0,81,0.00,,,0.18,weatherlink.com 1.10,2013-10-09 22:31:00,
2013-10-09 18:46:00,77.5,72.0,29.96,North,355,8.0,19.0,82,0.00,,,0.18,weatherlink.com 1.10,2013-10-09 22:46:00,
2013-10-09 19:01:00,77.0,72.0,29.96,NNE,19,0.0,17.0,83,0.00,,,0.18,weatherlink.com 1.10,2013-10-09 23:01:00,
2013-10-09 19:16:00,76.4,71.0,29.96,North,11,9.0,17.0,83,0.00,,,0.18,weatherlink.com 1.10,2013-10-09 23:16:00,
2013-10-09 19:31:00,76.3,71.0,29.96,NNE,19,2.0,15.0,84,0.00,,,0.18,weatherlink.com 1.10,2013-10-09 23:31:00,
2013-10-09 19:46:00,76.4,71.0,29.96,North,5,15.0,17.0,84,0.00,,,0.18,weatherlink.com 1.10,2013-10-09 23:46:00,
2013-10-09 20:01:00,76.5,71.0,29.96,North,360,0.0,14.0,84,0.00,,,0.18,weatherlink.com 1.10,2013-10-10 00:01:00,
2013-10-09 20:16:00,76.5,71.0,29.97,North,355,4.0,16.0,83,0.00,,,0.18,weatherlink.com 1.10,2013-10-10 00:16:00,
2013-10-09 20:31:00,76.4,71.0,29.97,North,355,9.0,17.0,84,0.00,,,0.18,weatherlink.com 1.10,2013-10-10 00:31:00,
2013-10-09 20:46:00,76.2,71.0,29.97,North,5,0.0,14.0,84,0.00,,,0.18,weatherlink.com 1.10,2013-10-10 00:46:00,
2013-10-09 21:01:00,76.2,71.0,29.98,North,351,0.0,15.0,83,0.00,,,0.18,weatherlink.com 1.10,2013-10-10 01:01:00,
2013-10-09 21:16:00,76.1,71.0,29.98,North,5,0.0,12.0,84,0.00,,,0.18,weatherlink.com 1.10,2013-10-10 01:16:00,
2013-10-09 21:31:00,76.1,71.0,29.99,North,355,0.0,17.0,84,0.00,,,0.18,weatherlink.com 1.10,2013-10-10 01:31:00,
2013-10-09 21:46:00,75.9,71.0,29.99,North,349,0.0,9.0,84,0.00,,,0.18,weatherlink.com 1.10,2013-10-10 01:46:00,
2013-10-09 22:01:00,75.9,71.0,29.99,North,360,0.0,8.0,85,0.00,,,0.18,weatherlink.com 1.10,2013-10-10 02:01:00,
2013-10-09 22:16:00,75.8,71.0,30.00,NNW,336,0.0,11.0,85,0.00,,,0.18,weatherlink.com 1.10,2013-10-10 02:16:00,
2013-10-09 22:31:00,75.3,71.0,30.00,NW,325,0.0,0.0,86,0.00,,,0.18,weatherlink.com 1.10,2013-10-10 02:31:00,
2013-10-09 22:46:00,74.7,71.0,30.00,NW,313,0.0,0.0,87,0.00,,,0.18,weatherlink.com 1.10,2013-10-10 02:46:00,
2013-10-09 23:01:00,74.8,71.0,30.00,NNW,337,0.0,0.0,87,0.00,,,0.18,weatherlink.com 1.10,2013-10-10 03:01:00,
2013-10-09 23:31:00,74.3,70.0,30.00,WNW,301,0.0,0.0,86,0.00,,,0.18,weatherlink.com 1.10,2013-10-10 03:31:00,
2013-10-09 23:47:00,73.9,70.0,30.00,NW,311,0.0,0.0,86,0.00,,,0.18,weatherlink.com 1.10,2013-10-10 03:47:00,